Time;durP1;ratioP1;P1;durP2;ratioP2;P2;SDS_P1;SDS_P2;PMS_P1;PMS_P2;Temp;Humidity;BMP_temperature;BMP_pressure;BME280_temperature;BME280_humidity;BME280_pressure;Samples;Min_cycle;Max_cycle;Signal;HPM_P1;HPM_P2
2023/09/06 00:01:04;;;;;;;14.55;4.60;;;;;;;17.01;100.00;101696.41;6256855;23;20001;-80
2023/09/06 00:03:29;;;;;;;10.45;4.38;;;;;;;17.02;100.00;101691.84;6255091;23;20334;-79
2023/09/06 00:05:55;;;;;;;14.02;4.85;;;;;;;17.00;100.00;101694.69;6230202;23;20389;-80
2023/09/06 00:08:20;;;;;;;13.13;5.03;;;;;;;16.98;100.00;101691.25;6255069;23;20008;-79
2023/09/06 00:10:46;;;;;;;14.77;5.25;;;;;;;16.96;100.00;101693.25;6230442;23;20056;-79
2023/09/06 00:13:13;;;;;;;15.60;5.45;;;;;;;16.94;100.00;101700.66;6257340;23;20337;-79
2023/09/06 00:15:38;;;;;;;16.20;5.43;;;;;;;16.90;100.00;101691.06;6258124;23;20026;-80
2023/09/06 00:18:08;;;;;;;14.05;4.57;;;;;;;16.87;100.00;101692.19;6257939;23;20004;-79
2023/09/06 00:20:35;;;;;;;12.95;4.65;;;;;;;16.85;100.00;101691.44;6254540;23;20001;-80
2023/09/06 00:23:04;;;;;;;13.85;4.72;;;;;;;16.79;100.00;101686.53;6223803;23;20036;-79
2023/09/06 00:25:31;;;;;;;11.90;4.68;;;;;;;16.77;100.00;101686.66;6224227;23;20008;-80
2023/09/06 00:27:58;;;;;;;13.65;4.93;;;;;;;16.71;100.00;101684.47;6224908;23;20000;-79
2023/09/06 00:30:23;;;;;;;13.52;4.90;;;;;;;16.69;100.00;101682.88;6226099;23;20004;-80
2023/09/06 00:32:52;;;;;;;13.93;4.75;;;;;;;16.65;100.00;101676.88;6225837;23;20000;-80
2023/09/06 00:35:18;;;;;;;;;;;;;;;16.72;100.00;101680.78;6226957;23;20032;-80
2023/09/06 00:37:44;;;;;;;14.05;4.50;;;;;;;16.62;100.00;101685.28;6225276;23;19915;-80
2023/09/06 00:40:17;;;;;;;14.63;4.63;;;;;;;16.59;100.00;101685.53;6225252;23;20008;-79
2023/09/06 00:42:46;;;;;;;13.98;4.80;;;;;;;16.57;100.00;101684.78;6224626;23;20024;-80
2023/09/06 00:45:11;;;;;;;13.57;4.88;;;;;;;16.55;100.00;101689.50;6223400;23;20008;-80
2023/09/06 00:47:36;;;;;;;17.38;4.93;;;;;;;16.51;100.00;101690.75;6220781;23;20501;-80
2023/09/06 00:50:02;;;;;;;14.13;4.65;;;;;;;16.51;100.00;101693.47;6223643;23;20481;-80
2023/09/06 00:52:28;;;;;;;12.32;4.90;;;;;;;16.49;100.00;101690.88;6220749;23;20000;-80
2023/09/06 00:54:53;;;;;;;13.18;5.10;;;;;;;16.50;100.00;101689.91;6215627;23;20008;-79
2023/09/06 00:57:19;;;;;;;16.48;5.20;;;;;;;16.54;100.00;101688.63;6215174;23;20099;-80
2023/09/06 00:59:45;;;;;;;13.60;4.78;;;;;;;16.58;100.00;101690.09;6225693;23;20020;-83
2023/09/06 01:02:11;;;;;;;13.05;4.90;;;;;;;16.64;100.00;101691.41;6215408;23;20004;-79
2023/09/06 01:04:37;;;;;;;14.90;5.10;;;;;;;16.67;100.00;101699.28;6213164;23;20005;-79
2023/09/06 01:07:02;;;;;;;14.95;5.00;;;;;;;16.74;100.00;101695.06;6211465;23;20000;-79
2023/09/06 01:09:29;;;;;;;13.05;4.60;;;;;;;16.78;100.00;101704.66;6212063;23;20456;-78
2023/09/06 01:11:55;;;;;;;13.77;4.95;;;;;;;16.83;100.00;101698.00;6213925;23;19997;-79
2023/09/06 01:14:20;;;;;;;15.88;5.07;;;;;;;16.86;100.00;101697.72;6212175;23;20130;-79
2023/09/06 01:16:48;;;;;;;13.93;6.03;;;;;;;16.88;100.00;101693.91;6213157;23;20012;-79
2023/09/06 01:19:15;;;;;;;14.60;5.35;;;;;;;16.91;100.00;101696.38;6213689;23;20009;-79
2023/09/06 01:22:02;;;;;;;14.75;5.03;;;;;;;16.93;100.00;101690.81;6213575;23;20084;-79
2023/09/06 01:24:29;;;;;;;14.45;5.20;;;;;;;16.91;100.00;101690.06;6217527;23;20091;-79
2023/09/06 01:26:55;;;;;;;15.35;5.22;;;;;;;16.91;100.00;101695.47;6243511;23;20004;-79
2023/09/06 01:29:20;;;;;;;15.23;5.25;;;;;;;16.88;100.00;101691.19;6216602;23;20015;-79
2023/09/06 01:31:46;;;;;;;15.60;4.65;;;;;;;16.87;100.00;101694.03;6217924;23;20008;-79
2023/09/06 01:34:11;;;;;;;15.77;5.50;;;;;;;16.82;100.00;101691.69;6244548;23;20340;-79
2023/09/06 01:36:37;;;;;;;12.80;4.88;;;;;;;16.78;100.00;101696.53;6243322;23;20091;-79
2023/09/06 01:39:04;;;;;;;14.00;4.88;;;;;;;16.75;100.00;101702.22;6216856;23;20085;-79
2023/09/06 01:41:30;;;;;;;13.70;5.45;;;;;;;16.72;100.00;101713.34;6243225;23;20004;-79
2023/09/06 01:43:55;;;;;;;13.65;4.75;;;;;;;16.66;100.00;101703.03;6217189;23;20015;-79
2023/09/06 01:46:22;;;;;;;11.57;4.53;;;;;;;16.62;100.00;101700.69;6217239;23;20016;-79
2023/09/06 01:48:48;;;;;;;13.65;4.93;;;;;;;16.57;100.00;101698.38;6243368;23;20028;-79
2023/09/06 01:51:15;;;;;;;14.07;4.82;;;;;;;16.52;100.00;101706.91;6216443;23;20311;-79
2023/09/06 01:53:41;;;;;;;16.65;5.57;;;;;;;16.48;100.00;101705.44;6243282;23;20004;-79
2023/09/06 01:56:07;;;;;;;14.70;5.15;;;;;;;16.44;100.00;101698.53;6217225;23;20004;-79
2023/09/06 01:58:34;;;;;;;13.50;5.20;;;;;;;16.41;100.00;101704.22;6244719;23;20511;-79
2023/09/06 02:01:04;;;;;;;16.95;5.82;;;;;;;16.37;100.00;101706.34;6245832;23;20031;-79
2023/09/06 02:03:29;;;;;;;13.43;5.10;;;;;;;16.32;100.00;101705.88;6246005;23;20008;-79
2023/09/06 02:05:54;;;;;;;12.30;4.65;;;;;;;16.30;100.00;101707.00;6245439;23;20065;-79
2023/09/06 02:08:21;;;;;;;17.42;5.13;;;;;;;16.23;100.00;101709.38;6243900;23;20011;-79
2023/09/06 02:10:47;;;;;;;16.42;5.13;;;;;;;16.20;100.00;101702.34;6218376;23;20007;-78
2023/09/06 02:13:12;;;;;;;18.40;6.50;;;;;;;16.17;100.00;101701.75;6244707;23;20433;-78
2023/09/06 02:15:38;;;;;;;13.52;5.15;;;;;;;16.12;100.00;101693.13;6218396;23;19996;-79
2023/09/06 02:18:04;;;;;;;14.30;5.18;;;;;;;16.09;100.00;101699.66;6217965;23;20042;-79
2023/09/06 02:20:30;;;;;;;14.95;5.32;;;;;;;16.05;100.00;101706.34;6231559;23;20046;-82
2023/09/06 02:22:56;;;;;;;13.55;5.07;;;;;;;16.02;100.00;101699.31;6264070;23;20012;-82
2023/09/06 02:25:24;;;;;;;15.20;5.35;;;;;;;16.00;100.00;101708.56;6238668;23;20429;-83
2023/09/06 02:27:50;;;;;;;17.50;5.78;;;;;;;16.02;100.00;101706.59;6239316;23;20012;-82
2023/09/06 02:30:17;;;;;;;16.75;6.30;;;;;;;16.02;100.00;101707.44;6237100;23;20011;-82
2023/09/06 02:32:43;;;;;;;14.02;5.25;;;;;;;16.02;100.00;101707.44;6264844;23;20014;-83
2023/09/06 02:35:08;;;;;;;17.70;5.88;;;;;;;16.02;100.00;101709.31;6262951;23;20004;-83
2023/09/06 02:37:35;;;;;;;15.43;5.15;;;;;;;16.03;100.00;101720.03;6260929;23;20107;-82
2023/09/06 02:40:01;;;;;;;15.45;5.20;;;;;;;16.02;100.00;101714.75;6262977;23;20004;-82
2023/09/06 02:42:26;;;;;;;16.88;5.53;;;;;;;15.99;100.00;101714.97;6235518;23;20027;-83
2023/09/06 02:44:53;;;;;;;15.80;5.90;;;;;;;15.94;100.00;101711.78;6235382;23;20004;-82
2023/09/06 02:47:25;;;;;;;15.20;5.55;;;;;;;15.91;100.00;101707.47;6235713;23;20007;-82
2023/09/06 02:49:55;;;;;;;16.38;5.22;;;;;;;15.88;100.00;101713.16;6263059;23;20014;-82
2023/09/06 02:52:30;;;;;;;18.90;6.22;;;;;;;15.87;100.00;101711.41;6262801;23;20000;-82
2023/09/06 02:54:59;;;;;;;19.40;6.22;;;;;;;15.83;100.00;101709.97;6262308;23;20000;-82
2023/09/06 02:57:30;;;;;;;15.43;5.55;;;;;;;15.78;100.00;101712.16;6261625;23;20035;-83
2023/09/06 02:59:55;;;;;;;15.27;5.63;;;;;;;15.73;100.00;101713.38;6234558;23;20007;-82
2023/09/06 03:02:24;;;;;;;17.90;6.43;;;;;;;15.70;100.00;101715.50;6252033;23;20008;-84
2023/09/06 03:04:57;;;;;;;15.98;5.28;;;;;;;15.64;100.00;101722.25;6232135;23;20008;-82
2023/09/06 03:07:22;;;;;;;16.33;5.95;;;;;;;15.59;100.00;101715.50;6262770;23;19996;-82
2023/09/06 03:09:49;;;;;;;18.38;6.57;;;;;;;15.56;100.00;101719.31;6265181;23;20027;-83
2023/09/06 03:12:16;;;;;;;16.10;6.00;;;;;;;15.53;100.00;101716.84;6235279;23;20032;-83
2023/09/06 03:14:44;;;;;;;16.13;6.43;;;;;;;15.49;100.00;101723.50;6230741;23;20004;-83
2023/09/06 03:17:10;;;;;;;16.88;6.07;;;;;;;15.45;100.00;101722.03;6262142;23;20064;-83
2023/09/06 03:19:40;;;;;;;16.50;6.43;;;;;;;15.42;100.00;101714.13;6263909;23;20004;-83
2023/09/06 03:22:09;;;;;;;16.15;5.80;;;;;;;15.39;100.00;101720.69;6236717;23;20027;-82
2023/09/06 03:24:36;;;;;;;16.65;6.00;;;;;;;15.35;100.00;101717.34;6263895;23;20082;-82
2023/09/06 03:27:07;;;;;;;19.67;6.55;;;;;;;15.31;100.00;101721.25;6265711;23;20055;-83
2023/09/06 03:29:33;;;;;;;17.02;6.40;;;;;;;15.30;100.00;101719.56;6232694;23;20007;-82
2023/09/06 03:31:59;;;;;;;15.15;6.25;;;;;;;15.29;100.00;101723.25;6244178;23;20071;-82
2023/09/06 03:34:24;;;;;;;17.15;6.03;;;;;;;15.28;100.00;101718.81;6217104;23;20307;-82
2023/09/06 03:36:55;;;;;;;15.27;5.82;;;;;;;15.28;100.00;101726.94;6243951;23;20008;-82
2023/09/06 03:39:20;;;;;;;15.27;5.63;;;;;;;15.25;100.00;101731.75;6243178;23;20032;-83
2023/09/06 03:41:46;;;;;;;15.32;5.47;;;;;;;15.21;100.00;101728.41;6217154;23;20329;-82
2023/09/06 03:44:12;;;;;;;17.15;6.57;;;;;;;15.19;100.00;101727.66;6243668;23;20075;-82
2023/09/06 03:46:38;;;;;;;15.55;5.85;;;;;;;15.15;100.00;101727.06;6216770;23;20355;-83
2023/09/06 03:49:08;;;;;;;17.55;6.20;;;;;;;15.13;100.00;101728.16;6216188;23;20062;-82
2023/09/06 03:51:34;;;;;;;15.57;5.68;;;;;;;15.11;100.00;101727.41;6216998;23;20346;-82
2023/09/06 03:54:05;;;;;;;17.15;5.80;;;;;;;15.08;100.00;101723.13;6242532;23;20035;-83
2023/09/06 03:56:31;;;;;;;16.80;5.85;;;;;;;15.06;100.00;101722.34;6216647;23;20087;-82
2023/09/06 03:59:00;;;;;;;18.70;6.65;;;;;;;15.07;100.00;101728.66;6215802;23;20046;-82
2023/09/06 04:01:26;;;;;;;17.77;6.10;;;;;;;15.05;100.00;101734.16;6216473;23;20011;-82
2023/09/06 04:03:52;;;;;;;15.18;6.28;;;;;;;15.00;100.00;101734.53;6243597;23;20034;-82
2023/09/06 04:06:19;;;;;;;15.25;5.78;;;;;;;14.98;100.00;101733.78;6243311;23;20008;-83
2023/09/06 04:08:45;;;;;;;17.23;5.38;;;;;;;14.94;100.00;101735.00;6216725;23;20000;-82
2023/09/06 04:11:10;;;;;;;16.58;5.70;;;;;;;14.91;100.00;101729.84;6242913;23;20049;-83
2023/09/06 04:13:35;;;;;;;16.33;5.70;;;;;;;14.90;100.00;101733.50;6243092;23;20000;-82
2023/09/06 04:16:01;;;;;;;15.98;5.50;;;;;;;14.88;100.00;101735.50;6243189;23;20004;-83
2023/09/06 04:18:28;;;;;;;15.88;5.50;;;;;;;14.87;100.00;101739.16;6243112;23;20011;-82
2023/09/06 04:20:54;;;;;;;13.70;5.13;;;;;;;14.84;100.00;101737.56;6242784;23;20486;-82
2023/09/06 04:23:19;;;;;;;15.40;5.68;;;;;;;14.83;100.00;101734.97;6243442;23;20047;-82
2023/09/06 04:25:44;;;;;;;15.55;5.68;;;;;;;14.80;100.00;101744.22;6243366;23;20332;-82
2023/09/06 04:28:12;;;;;;;16.10;5.63;;;;;;;14.79;100.00;101741.63;6243054;23;20418;-82
2023/09/06 04:30:40;;;;;;;14.52;5.35;;;;;;;14.77;100.00;101736.28;6243013;23;20000;-83
2023/09/06 04:33:10;;;;;;;17.95;5.50;;;;;;;14.75;100.00;101742.84;6242800;23;20000;-83
2023/09/06 04:35:43;;;;;;;16.70;5.97;;;;;;;14.76;100.00;101748.13;6242846;23;20449;-83
2023/09/06 04:38:09;;;;;;;15.52;5.72;;;;;;;14.78;100.00;101740.75;6242553;23;20452;-82
2023/09/06 04:40:35;;;;;;;15.55;6.18;;;;;;;14.76;100.00;101747.25;6222036;23;20030;-80
2023/09/06 04:43:01;;;;;;;16.02;6.40;;;;;;;14.73;100.00;101748.38;6253919;23;20008;-79
2023/09/06 04:45:26;;;;;;;16.98;6.43;;;;;;;14.72;100.00;101748.47;6254601;23;20027;-80
2023/09/06 04:47:52;;;;;;;12.57;5.22;;;;;;;14.72;100.00;101748.47;6253491;23;20003;-81
2023/09/06 04:50:18;;;;;;;17.77;6.45;;;;;;;14.72;100.00;101753.91;6252706;23;20030;-80
2023/09/06 04:52:45;;;;;;;18.48;6.28;;;;;;;14.70;100.00;101747.72;6256606;23;20071;-80
2023/09/06 04:55:12;;;;;;;16.25;6.18;;;;;;;14.71;100.00;101749.44;6254246;23;19999;-80
2023/09/06 04:57:41;;;;;;;16.52;5.80;;;;;;;14.71;100.00;101763.84;6253836;23;20024;-80
2023/09/06 05:00:23;;;;;;;20.50;6.68;;;;;;;14.70;100.00;101761.25;6227015;23;20427;-80
2023/09/06 05:02:49;;;;;;;16.10;6.15;;;;;;;14.70;100.00;101762.13;6256105;23;20008;-80
2023/09/06 05:05:15;;;;;;;22.45;7.07;;;;;;;14.71;100.00;101760.28;6227549;23;20057;-79
2023/09/06 05:07:41;;;;;;;15.52;6.28;;;;;;;14.68;100.00;101761.38;6226654;23;20008;-80
2023/09/06 05:10:09;;;;;;;17.35;6.38;;;;;;;14.66;100.00;101758.78;6226615;23;20000;-80
2023/09/06 05:12:35;;;;;;;18.88;6.13;;;;;;;14.68;100.00;101770.38;6225438;23;20004;-80
2023/09/06 05:15:01;;;;;;;17.38;7.13;;;;;;;14.70;100.00;101770.25;6226883;23;20068;-80
2023/09/06 05:17:26;;;;;;;17.85;6.28;;;;;;;14.70;100.00;101777.47;6226262;23;20418;-79
2023/09/06 05:19:52;;;;;;;16.45;6.88;;;;;;;14.71;100.00;101779.22;6225794;23;20293;-79
2023/09/06 05:22:18;;;;;;;17.30;6.40;;;;;;;14.72;100.00;101778.25;6224736;23;20016;-79
2023/09/06 05:24:43;;;;;;;18.10;6.63;;;;;;;14.75;100.00;101772.59;6228029;23;20035;-79
2023/09/06 05:27:09;;;;;;;18.58;7.13;;;;;;;14.76;100.00;101777.00;6251116;23;20008;-79
2023/09/06 05:29:34;;;;;;;17.73;6.80;;;;;;;14.76;100.00;101790.53;6224217;23;20024;-79
2023/09/06 05:31:59;;;;;;;19.42;7.45;;;;;;;14.77;100.00;101781.44;6250605;23;20003;-80
2023/09/06 05:34:25;;;;;;;18.42;6.82;;;;;;;14.80;100.00;101784.81;6226771;23;20015;-79
2023/09/06 05:36:51;;;;;;;16.30;6.95;;;;;;;14.83;100.00;101791.78;6226237;23;19996;-80
2023/09/06 05:39:16;;;;;;;19.67;7.40;;;;;;;14.84;100.00;101788.13;6224262;23;20000;-79
2023/09/06 05:41:41;;;;;;;16.85;6.78;;;;;;;14.87;100.00;101785.19;6226623;23;20042;-68
2023/09/06 05:44:07;;;;;;;19.38;7.95;;;;;;;14.89;100.00;101785.94;6248129;23;20007;-78
2023/09/06 05:46:33;;;;;;;18.30;7.35;;;;;;;14.92;100.00;101793.81;6216003;23;20000;-78
2023/09/06 05:48:58;;;;;;;19.65;7.78;;;;;;;14.95;100.00;101795.41;6243999;23;20004;-77
2023/09/06 05:51:24;;;;;;;21.10;7.43;;;;;;;14.97;100.00;101794.31;6233692;23;20079;-77
2023/09/06 05:53:49;;;;;;;20.73;8.52;;;;;;;14.99;100.00;101795.06;6257618;23;20031;-77
2023/09/06 05:56:14;;;;;;;20.55;8.18;;;;;;;15.02;100.00;101792.13;6267256;23;20004;-77
2023/09/06 05:58:40;;;;;;;19.88;7.93;;;;;;;15.08;100.00;101792.63;6238829;23;20392;-76
2023/09/06 06:01:06;;;;;;;20.38;8.55;;;;;;;15.13;100.00;101795.84;6240259;23;20011;-77
2023/09/06 06:03:32;;;;;;;20.15;8.25;;;;;;;15.18;100.00;101797.22;6267187;23;20012;-76
2023/09/06 06:05:57;;;;;;;19.38;8.40;;;;;;;15.23;100.00;101799.56;6265478;23;20011;-76
2023/09/06 06:08:23;;;;;;;22.33;8.95;;;;;;;15.30;100.00;101795.41;6258914;23;20313;-75
2023/09/06 06:10:48;;;;;;;25.58;9.88;;;;;;;15.38;100.00;101797.50;6233777;23;20000;-75
2023/09/06 06:13:14;;;;;;;23.17;8.95;;;;;;;15.45;100.00;101803.31;6257742;23;20079;-76
2023/09/06 06:15:39;;;;;;;27.15;8.45;;;;;;;15.52;100.00;101793.69;6254723;23;20004;-76
2023/09/06 06:18:05;;;;;;;24.75;8.98;;;;;;;15.58;100.00;101800.47;6257372;23;20440;-76
2023/09/06 06:20:31;;;;;;;21.67;8.55;;;;;;;15.64;100.00;101808.13;6255847;23;20008;-77
2023/09/06 06:22:58;;;;;;;20.65;9.25;;;;;;;15.67;100.00;101811.44;6253557;23;20012;-76
2023/09/06 06:25:23;;;;;;;25.52;9.45;;;;;;;15.76;100.00;101806.28;6251794;23;20008;-76
2023/09/06 06:27:51;;;;;;;20.13;8.70;;;;;;;15.79;100.00;101806.06;6253765;23;20004;-77
2023/09/06 06:30:17;;;;;;;21.02;8.95;;;;;;;15.84;100.00;101802.00;6249132;23;20004;-76
2023/09/06 06:32:42;;;;;;;18.42;7.22;;;;;;;15.88;100.00;101808.88;6251728;23;20081;-76
2023/09/06 06:35:11;;;;;;;20.65;6.85;;;;;;;15.93;100.00;101808.53;6257299;23;20008;-76
2023/09/06 06:37:36;;;;;;;22.38;7.97;;;;;;;16.01;100.00;101800.63;6243959;23;20004;-77
2023/09/06 06:40:02;;;;;;;19.45;7.82;;;;;;;16.06;100.00;101805.66;6245217;23;19991;-77
2023/09/06 06:42:28;;;;;;;22.35;9.48;;;;;;;16.15;100.00;101809.47;6243026;23;20027;-77
2023/09/06 06:44:53;;;;;;;22.92;8.77;;;;;;;16.22;100.00;101810.69;6269359;23;20008;-77
2023/09/06 06:47:19;;;;;;;21.25;7.95;;;;;;;16.25;100.00;101813.16;6270839;23;20047;-77
2023/09/06 06:49:44;;;;;;;19.42;6.65;;;;;;;16.33;100.00;101812.53;6270866;23;20003;-77
2023/09/06 06:52:09;;;;;;;17.77;6.03;;;;;;;16.34;100.00;101820.56;6245879;23;20008;-77
2023/09/06 06:54:39;;;;;;;15.75;5.35;;;;;;;16.36;100.00;101824.00;6244491;23;20019;-77
2023/09/06 06:57:05;;;;;;;17.00;7.32;;;;;;;16.52;100.00;101820.03;6269824;23;20034;-77
2023/09/06 06:59:30;;;;;;;15.93;5.88;;;;;;;16.48;100.00;101826.69;6243584;23;20004;-76
2023/09/06 07:01:55;;;;;;;15.35;5.75;;;;;;;16.53;100.00;101821.72;6245713;23;20047;-77
2023/09/06 07:04:21;;;;;;;17.27;6.18;;;;;;;16.62;100.00;101820.97;6270518;22;20016;-77
2023/09/06 07:06:46;;;;;;;12.82;4.68;;;;;;;16.62;100.00;101826.41;6272436;23;20044;-77
2023/09/06 07:09:12;;;;;;;15.40;5.10;;;;;;;16.64;100.00;101829.84;6239514;23;20099;-76
2023/09/06 07:11:37;;;;;;;18.05;6.05;;;;;;;16.73;100.00;101830.94;6243687;23;20349;-77
2023/09/06 07:14:03;;;;;;;18.92;6.10;;;;;;;16.77;100.00;101833.25;6270599;22;20022;-77
2023/09/06 07:16:31;;;;;;;18.02;6.45;;;;;;;16.88;100.00;101831.50;6260635;23;20009;-79
2023/09/06 07:18:56;;;;;;;21.90;7.43;;;;;;;17.02;100.00;101825.78;6218231;23;20464;-79
2023/09/06 07:21:21;;;;;;;17.85;6.00;;;;;;;17.12;100.00;101824.00;6245649;23;20004;-79
2023/09/06 07:23:47;;;;;;;17.50;6.43;;;;;;;17.30;100.00;101820.69;6244692;23;20030;-79
2023/09/06 07:26:13;;;;;;;17.88;5.68;;;;;;;17.42;100.00;101824.19;6218402;23;20047;-79
2023/09/06 07:28:40;;;;;;;12.55;4.75;;;;;;;17.46;100.00;101826.50;6217396;23;20011;-80
2023/09/06 07:31:07;;;;;;;15.52;5.63;;;;;;;17.54;100.00;101827.69;6217376;23;20314;-79
2023/09/06 07:33:32;;;;;;;17.92;5.82;;;;;;;17.58;100.00;101830.00;6244384;23;20378;-79
2023/09/06 07:35:58;;;;;;;13.25;5.20;;;;;;;17.61;100.00;101826.16;6217508;23;20008;-79
2023/09/06 07:38:23;;;;;;;25.45;5.53;;;;;;;17.79;100.00;101831.84;6215583;23;20007;-80
2023/09/06 07:40:57;;;;;;;15.82;5.50;;;;;;;17.93;100.00;101833.38;6244854;23;20004;-79
2023/09/06 07:43:24;;;;;;;13.30;5.05;;;;;;;17.98;100.00;101829.25;6244145;23;20306;-79
2023/09/06 07:45:49;;;;;;;12.13;4.72;;;;;;;17.93;100.00;101834.22;6243937;23;20028;-79
2023/09/06 07:48:15;;;;;;;16.77;4.75;;;;;;;17.93;100.00;101827.94;6217591;23;20433;-80
2023/09/06 07:50:41;;;;;;;14.32;4.85;;;;;;;18.02;100.00;101831.69;6216955;23;20004;-79
2023/09/06 07:53:06;;;;;;;17.27;5.50;;;;;;;18.11;100.00;101830.84;6244297;23;20332;-79
2023/09/06 07:55:32;;;;;;;11.90;4.85;;;;;;;18.14;100.00;101828.72;6244150;23;20087;-79
2023/09/06 07:57:57;;;;;;;14.65;4.43;;;;;;;18.13;100.00;101832.44;6216974;23;20011;-80
2023/09/06 08:00:22;;;;;;;14.68;5.20;;;;;;;18.32;100.00;101837.06;6244370;23;20003;-79
2023/09/06 08:02:48;;;;;;;12.23;4.57;;;;;;;18.33;100.00;101833.38;6243966;23;20015;-79
2023/09/06 08:05:13;;;;;;;12.55;4.43;;;;;;;18.45;100.00;101839.56;6245336;23;20000;-79
2023/09/06 08:07:39;;;;;;;9.80;4.13;;;;;;;18.49;100.00;101838.28;6217188;23;20023;-80
2023/09/06 08:10:09;;;;;;;11.88;4.63;;;;;;;18.53;100.00;101844.28;6217200;23;20377;-80
2023/09/06 08:12:35;;;;;;;16.00;4.57;;;;;;;18.51;100.00;101847.16;6242637;23;20000;-80
2023/09/06 08:15:00;;;;;;;12.73;4.93;;;;;;;18.51;98.70;101840.84;6216158;23;20003;-80
2023/09/06 08:17:27;;;;;;;16.63;5.30;;;;;;;18.57;100.00;101843.00;6216067;23;20421;-80
2023/09/06 08:19:52;;;;;;;9.73;4.18;;;;;;;18.56;99.12;101845.88;6215937;23;20007;-80
2023/09/06 08:22:18;;;;;;;10.35;4.20;;;;;;;18.62;99.69;101846.16;6242269;23;20012;-80
2023/09/06 08:24:44;;;;;;;11.93;3.92;;;;;;;18.65;99.00;101845.91;6215441;23;20004;-80
2023/09/06 08:27:09;;;;;;;13.38;4.50;;;;;;;18.70;99.70;101837.31;6217504;23;20015;-79
2023/09/06 08:29:34;;;;;;;11.48;4.05;;;;;;;18.73;99.44;101837.00;6215187;23;20008;-79
2023/09/06 08:32:00;;;;;;;13.50;4.53;;;;;;;18.82;99.61;101841.59;6242389;23;20034;-80
2023/09/06 08:34:25;;;;;;;11.55;4.15;;;;;;;18.82;98.61;101838.88;6242525;23;20000;-77
2023/09/06 08:36:51;;;;;;;12.32;4.28;;;;;;;18.88;99.57;101845.66;6241612;23;20008;-79
2023/09/06 08:39:16;;;;;;;11.98;4.30;;;;;;;18.93;98.75;101837.03;6215053;23;20004;-79
2023/09/06 08:41:47;;;;;;;12.82;4.32;;;;;;;18.95;98.11;101833.19;6214981;23;20000;-79
2023/09/06 08:44:17;;;;;;;12.93;4.70;;;;;;;19.00;99.45;101833.59;6215496;23;20039;-79
2023/09/06 08:46:44;;;;;;;13.55;4.50;;;;;;;19.06;100.00;101834.88;6218136;23;20043;-80
2023/09/06 08:49:11;;;;;;;15.93;5.07;;;;;;;19.11;100.00;101838.06;6242921;23;20008;-80
2023/09/06 08:51:38;;;;;;;10.05;4.05;;;;;;;19.16;99.46;101837.63;6216138;23;20168;-81
2023/09/06 08:54:05;;;;;;;12.02;4.50;;;;;;;19.24;99.54;101851.38;6242599;23;20028;-80
2023/09/06 08:56:32;;;;;;;12.18;4.10;;;;;;;19.29;98.67;101848.22;6224081;23;20050;-80
2023/09/06 08:58:59;;;;;;;14.50;5.10;;;;;;;19.47;99.13;101841.00;6219322;23;20024;-81
2023/09/06 09:01:26;;;;;;;13.07;4.35;;;;;;;19.52;98.25;101849.59;6217800;23;20030;-81
2023/09/06 09:03:51;;;;;;;12.27;4.05;;;;;;;19.69;98.08;101847.13;6219139;23;20018;-80
2023/09/06 09:06:17;;;;;;;11.55;4.55;;;;;;;19.85;96.59;101844.66;6245771;23;20098;-80
2023/09/06 09:08:42;;;;;;;15.93;3.97;;;;;;;19.86;97.22;101846.38;6245877;23;20390;-81
2023/09/06 09:11:13;;;;;;;11.10;4.13;;;;;;;19.92;97.55;101849.53;6218726;23;20329;-81
2023/09/06 09:13:39;;;;;;;11.90;3.97;;;;;;;19.99;97.20;101846.03;6218540;23;20000;-81
2023/09/06 09:16:09;;;;;;;12.70;4.63;;;;;;;19.98;97.78;101838.84;6245776;23;20011;-80
2023/09/06 09:18:37;;;;;;;11.85;4.38;;;;;;;20.00;98.51;101842.31;6246950;23;20010;-80
2023/09/06 09:21:04;;;;;;;11.55;4.00;;;;;;;20.01;97.41;101848.63;6250072;23;20433;-79
2023/09/06 09:23:30;;;;;;;10.45;3.95;;;;;;;20.12;97.77;101848.44;6253152;23;20023;-79
2023/09/06 09:25:56;;;;;;;7.88;3.35;;;;;;;20.10;98.05;101846.84;6252597;23;20083;-78
2023/09/06 09:28:22;;;;;;;11.73;3.78;;;;;;;20.16;97.42;101844.41;6253144;23;20383;-79
2023/09/06 09:30:48;;;;;;;13.25;4.22;;;;;;;20.23;96.34;101841.91;6253923;23;20001;-79
2023/09/06 09:33:14;;;;;;;12.70;4.63;;;;;;;20.39;95.36;101833.91;6254356;23;20000;-79
2023/09/06 09:35:40;;;;;;;9.88;3.70;;;;;;;20.44;95.42;101841.66;6225552;23;20004;-79
2023/09/06 09:38:10;;;;;;;11.52;3.63;;;;;;;20.48;95.91;101834.84;6225550;23;20023;-79
2023/09/06 09:40:37;;;;;;;7.85;3.28;;;;;;;20.44;95.73;101838.94;6226974;23;20007;-79
2023/09/06 09:43:04;;;;;;;10.02;3.53;;;;;;;20.43;95.67;101834.47;6253348;23;20062;-79
2023/09/06 09:45:43;;;;;;;9.07;3.72;;;;;;;20.47;96.40;101835.88;6253286;23;20011;-78
2023/09/06 09:48:09;;;;;;;13.55;4.93;;;;;;;20.72;91.04;101826.09;6255469;23;20004;-79
2023/09/06 09:50:36;;;;;;;11.38;4.15;;;;;;;20.75;94.13;101828.53;6253695;23;20004;-79
2023/09/06 09:53:07;;;;;;;12.05;3.92;;;;;;;20.83;93.26;101830.47;6220331;23;20376;-79
2023/09/06 09:55:39;;;;;;;15.38;4.72;;;;;;;20.98;92.52;101830.75;6249732;23;20377;-80
2023/09/06 09:58:09;;;;;;;10.18;4.25;;;;;;;21.16;87.48;101838.09;6255177;23;20004;-80
2023/09/06 10:00:39;;;;;;;9.77;3.75;;;;;;;21.16;90.67;101835.34;6254891;23;20014;-79
2023/09/06 10:03:04;;;;;;;7.57;3.35;;;;;;;21.14;91.28;101835.53;6228708;23;20393;-80
2023/09/06 10:05:31;;;;;;;9.98;3.75;;;;;;;21.19;89.77;101829.59;6254335;23;20031;-80
2023/09/06 10:07:57;;;;;;;12.48;4.63;;;;;;;21.48;84.76;101826.56;6256852;23;20019;-79
2023/09/06 10:10:24;;;;;;;11.27;4.20;;;;;;;21.47;88.04;101833.03;6252950;23;20012;-79
2023/09/06 10:12:51;;;;;;;14.55;4.68;;;;;;;21.78;84.55;101829.84;6255906;23;20023;-79
2023/09/06 10:15:19;;;;;;;11.38;4.38;;;;;;;21.70;85.19;101827.06;6228558;23;20004;-80
2023/09/06 10:17:47;;;;;;;9.40;3.75;;;;;;;21.64;88.09;101826.69;6227044;23;20008;-79
2023/09/06 10:20:14;;;;;;;10.02;3.72;;;;;;;21.56;87.33;101826.63;6261543;22;19999;-76
2023/09/06 10:22:42;;;;;;;11.05;4.18;;;;;;;21.53;89.27;101829.69;6269603;22;20035;-74
2023/09/06 10:25:10;;;;;;;10.25;3.92;;;;;;;21.43;88.83;101820.72;6273197;22;20000;-76
2023/09/06 10:27:44;;;;;;;11.57;4.03;;;;;;;21.40;89.00;101829.22;6273558;22;19996;-76
2023/09/06 10:30:11;;;;;;;12.43;4.47;;;;;;;21.52;88.08;101819.75;6239584;23;20014;-76
2023/09/06 10:32:43;;;;;;;11.90;4.43;;;;;;;21.53;86.24;101826.97;6243258;23;19996;-76
2023/09/06 10:35:29;;;;;;;14.98;4.70;;;;;;;21.55;88.82;101824.91;6242884;23;20374;-76
2023/09/06 10:38:04;;;;;;;11.70;4.07;;;;;;;21.53;87.24;101818.75;6242720;23;20000;-76
2023/09/06 10:40:51;;;;;;;13.35;4.22;;;;;;;21.63;88.11;101819.50;6242442;23;20004;-76
2023/09/06 10:43:18;;;;;;;10.30;3.78;;;;;;;21.70;86.04;101813.38;6216312;23;20008;-76
2023/09/06 10:46:08;;;;;;;9.38;3.72;;;;;;;21.74;85.28;101810.19;6242831;23;20000;-75
2023/09/06 10:48:33;;;;;;;13.50;4.88;;;;;;;21.93;83.59;101813.66;6217576;23;20054;-76
2023/09/06 10:51:06;;;;;;;10.50;3.97;;;;;;;21.91;86.27;101811.09;6243412;23;20004;-77
2023/09/06 10:53:33;;;;;;;11.43;3.92;;;;;;;21.89;84.94;101815.88;6245572;23;20011;-76
2023/09/06 10:56:00;;;;;;;11.75;4.22;;;;;;;21.88;84.95;101813.31;6244195;23;20004;-76
2023/09/06 10:58:27;;;;;;;16.75;5.30;;;;;;;22.06;80.49;101803.13;6242770;23;20377;-76
2023/09/06 11:01:12;;;;;;;9.98;3.88;;;;;;;21.95;86.74;101809.75;6243214;23;20008;-76
2023/09/06 11:03:37;;;;;;;10.50;3.92;;;;;;;21.91;85.21;101808.34;6243148;23;20003;-75
2023/09/06 11:06:04;;;;;;;11.63;4.15;;;;;;;21.93;85.31;101811.81;6243378;23;20004;-76
2023/09/06 11:08:31;;;;;;;12.20;4.60;;;;;;;21.92;86.32;101807.34;6240686;23;20000;-76
2023/09/06 11:11:09;;;;;;;14.65;5.00;;;;;;;22.01;83.86;101808.25;6242060;23;19996;-78